Time;durP1;ratioP1;P1;durP2;ratioP2;P2;SDS_P1;SDS_P2;PMS_P1;PMS_P2;Temp;Humidity;BMP_temperature;BMP_pressure;BME280_temperature;BME280_humidity;BME280_pressure;Samples;Min_cycle;Max_cycle;Signal;HPM_P1;HPM_P2
2022/05/28 00:01:19;;;;;;;12.60;5.32;;;;;;;;;;5023312;28;20716;-81
2022/05/28 00:03:46;;;;;;;13.25;5.13;;;;;;;;;;4978296;28;20038;-77
2022/05/28 00:06:19;;;;;;;9.75;5.22;;;;;;;;;;5014976;28;20487;-76
2022/05/28 00:08:45;;;;;;;12.82;5.47;;;;;;;;;;5021701;28;20049;-81
2022/05/28 00:11:13;;;;;;;10.10;5.32;;;;;;;;;;5013440;28;20161;-79
2022/05/28 00:13:39;;;;;;;12.52;5.35;;;;;;;;;;5019597;28;20101;-79
2022/05/28 00:16:09;;;;;;;11.18;6.05;;;;;;;;;;4996638;28;20025;-78
2022/05/28 00:18:37;;;;;;;11.60;5.45;;;;;;;;;;5016939;28;20034;-82
2022/05/28 00:21:03;;;;;;;9.63;4.85;;;;;;;;;;4995226;28;20037;-77
2022/05/28 00:23:29;;;;;;;12.52;5.15;;;;;;;;;;4996386;28;20480;-78
2022/05/28 00:25:57;;;;;;;11.48;5.05;;;;;;;;;;4998133;28;20039;-80
2022/05/28 00:28:24;;;;;;;9.68;4.97;;;;;;;;;;4995132;28;20045;-83
2022/05/28 00:30:50;;;;;;;14.18;4.97;;;;;;;;;;5005670;28;20026;-80
2022/05/28 00:33:16;;;;;;;9.88;4.50;;;;;;;;;;5013366;28;20037;-80
2022/05/28 00:35:43;;;;;;;9.15;4.90;;;;;;;;;;5016814;28;20029;-79
2022/05/28 00:38:09;;;;;;;10.85;4.72;;;;;;;;;;4998018;28;20026;-80
2022/05/28 00:40:35;;;;;;;8.48;4.45;;;;;;;;;;5013117;28;20026;-80
2022/05/28 00:43:02;;;;;;;8.75;4.57;;;;;;;;;;5013274;28;20037;-79
2022/05/28 00:45:29;;;;;;;14.50;4.50;;;;;;;;;;5012553;28;20048;-78
2022/05/28 00:47:56;;;;;;;13.52;4.95;;;;;;;;;;5013154;28;20475;-78
2022/05/28 00:50:23;;;;;;;19.58;5.25;;;;;;;;;;5013061;28;20044;-82
2022/05/28 00:52:49;;;;;;;8.38;4.88;;;;;;;;;;5012911;28;20025;-77
2022/05/28 00:55:17;;;;;;;9.60;4.70;;;;;;;;;;4994827;28;20033;-80
2022/05/28 00:57:44;;;;;;;10.57;5.22;;;;;;;;;;5001725;28;20025;-79
2022/05/28 01:00:12;;;;;;;11.18;5.60;;;;;;;;;;4999539;28;20112;-80
2022/05/28 01:02:56;;;;;;;12.60;4.95;;;;;;;;;;5019068;28;20045;-81
2022/05/28 01:05:28;;;;;;;11.52;4.90;;;;;;;;;;5017749;28;20084;-82
2022/05/28 01:07:57;;;;;;;13.20;5.32;;;;;;;;;;5024258;28;20089;-79
2022/05/28 01:10:27;;;;;;;10.48;5.10;;;;;;;;;;5011722;28;20131;-82
2022/05/28 01:13:05;;;;;;;8.00;4.80;;;;;;;;;;4995427;28;20046;-78
2022/05/28 01:15:33;;;;;;;13.07;5.30;;;;;;;;;;5010224;28;20057;-76
2022/05/28 01:18:12;;;;;;;11.55;5.50;;;;;;;;;;5013468;28;20030;-77
2022/05/28 01:20:41;;;;;;;13.45;6.15;;;;;;;;;;5011873;28;20044;-84
2022/05/28 01:23:19;;;;;;;9.95;5.43;;;;;;;;;;5013257;28;20030;-82
2022/05/28 01:25:58;;;;;;;10.65;5.43;;;;;;;;;;5013459;28;20033;-81
2022/05/28 01:28:30;;;;;;;10.82;5.57;;;;;;;;;;5008911;28;20065;-84
2022/05/28 01:30:57;;;;;;;11.77;6.03;;;;;;;;;;5005866;28;20076;-82
2022/05/28 01:33:23;;;;;;;8.20;4.90;;;;;;;;;;5005516;28;20023;-79
2022/05/28 01:35:51;;;;;;;11.68;5.15;;;;;;;;;;5007018;28;20036;-80
2022/05/28 01:38:18;;;;;;;11.30;5.90;;;;;;;;;;5013007;28;20083;-78
2022/05/28 01:40:44;;;;;;;32.72;7.45;;;;;;;;;;5011846;28;20026;-78
2022/05/28 01:43:12;;;;;;;24.30;10.32;;;;;;;;;;5016581;28;20030;-81
2022/05/28 01:45:40;;;;;;;30.92;12.77;;;;;;;;;;4994525;28;20064;-84
2022/05/28 01:48:07;;;;;;;25.02;11.50;;;;;;;;;;5032379;28;20029;-79
2022/05/28 01:50:35;;;;;;;37.42;11.23;;;;;;;;;;5000331;28;20116;-78
2022/05/28 01:53:03;;;;;;;22.15;9.70;;;;;;;;;;5020461;28;20096;-84
2022/05/28 01:55:30;;;;;;;18.52;8.55;;;;;;;;;;5017867;28;20022;-80
2022/05/28 01:57:57;;;;;;;26.73;11.93;;;;;;;;;;4994157;28;20072;-81
2022/05/28 02:00:23;;;;;;;40.13;14.60;;;;;;;;;;4995372;28;20069;-79
2022/05/28 02:02:49;;;;;;;34.13;11.60;;;;;;;;;;5007252;28;20434;-84
2022/05/28 02:05:15;;;;;;;130.55;11.93;;;;;;;;;;5015741;28;20045;-79
2022/05/28 02:07:41;;;;;;;42.10;5.45;;;;;;;;;;5023223;28;20072;-80
2022/05/28 02:10:10;;;;;;;37.95;6.40;;;;;;;;;;5016280;28;20028;-82
2022/05/28 02:12:56;;;;;;;36.70;6.03;;;;;;;;;;5004238;28;20088;-80
2022/05/28 02:21:46;;;;;;;14.45;4.57;;;;;;;;;;5336417;23;20062;-79
2022/05/28 02:24:24;;;;;;;12.20;4.50;;;;;;;;;;5014390;28;20033;-80
2022/05/28 02:27:33;;;;;;;13.25;4.05;;;;;;;;;;5012745;28;20025;-79
2022/05/28 02:30:12;;;;;;;13.30;4.70;;;;;;;;;;4987016;28;20110;-80
2022/05/28 02:33:23;;;;;;;8.98;4.50;;;;;;;;;;4916548;29;20035;-80
2022/05/28 02:35:55;;;;;;;13.52;4.80;;;;;;;;;;4938353;29;20035;-78
2022/05/28 02:38:40;;;;;;;8.80;4.13;;;;;;;;;;4941503;29;20032;-78
2022/05/28 02:41:16;;;;;;;18.10;4.55;;;;;;;;;;4941926;29;20024;-78
2022/05/28 02:44:09;;;;;;;8.02;3.72;;;;;;;;;;4955175;29;20039;-78
2022/05/28 02:46:43;;;;;;;8.38;3.17;;;;;;;;;;4949256;29;20035;-78
2022/05/28 02:49:12;;;;;;;8.73;3.40;;;;;;;;;;4937047;29;20044;-78
2022/05/28 02:51:46;;;;;;;8.98;3.10;;;;;;;;;;4925349;29;20142;-78
2022/05/28 02:54:14;;;;;;;13.02;3.90;;;;;;;;;;4952261;29;20028;-78
2022/05/28 02:56:47;;;;;;;10.45;3.60;;;;;;;;;;4936689;29;20032;-78
2022/05/28 02:59:15;;;;;;;9.52;3.70;;;;;;;;;;4917551;29;20100;-78
2022/05/28 03:01:41;;;;;;;14.25;4.15;;;;;;;;;;4951402;29;20032;-78
2022/05/28 03:04:13;;;;;;;12.02;5.28;;;;;;;;;;4946959;29;20040;-78
2022/05/28 03:06:42;;;;;;;12.40;5.00;;;;;;;;;;4933804;29;20035;-78
2022/05/28 03:09:10;;;;;;;16.70;5.57;;;;;;;;;;4932963;28;20054;-79
2022/05/28 03:11:47;;;;;;;10.05;5.22;;;;;;;;;;4977408;28;20023;-78
2022/05/28 03:14:31;;;;;;;9.10;4.45;;;;;;;;;;4990230;28;20054;-77
2022/05/28 03:17:10;;;;;;;10.63;4.78;;;;;;;;;;4985386;28;20034;-78
2022/05/28 03:19:40;;;;;;;10.85;4.90;;;;;;;;;;5011794;28;20034;-77
2022/05/28 03:22:08;;;;;;;10.40;4.80;;;;;;;;;;5012267;28;20065;-78
2022/05/28 03:24:35;;;;;;;14.07;5.00;;;;;;;;;;4990248;28;20395;-79
2022/05/28 03:27:01;;;;;;;11.82;4.40;;;;;;;;;;4994164;28;20059;-79
2022/05/28 03:29:30;;;;;;;7.47;4.15;;;;;;;;;;5003373;28;20487;-78
2022/05/28 03:31:58;;;;;;;10.10;4.88;;;;;;;;;;5015164;28;20049;-79
2022/05/28 03:34:28;;;;;;;9.02;4.80;;;;;;;;;;5009581;28;20034;-78
2022/05/28 03:37:02;;;;;;;9.38;4.50;;;;;;;;;;5002326;28;20035;-78
2022/05/28 03:39:32;;;;;;;13.80;4.70;;;;;;;;;;4996740;28;20033;-78
2022/05/28 03:41:59;;;;;;;8.25;4.25;;;;;;;;;;4973813;28;20099;-79
2022/05/28 03:44:28;;;;;;;8.10;4.00;;;;;;;;;;4981609;28;20094;-79
2022/05/28 03:47:09;;;;;;;9.68;4.50;;;;;;;;;;4986975;28;20046;-78
2022/05/28 03:49:42;;;;;;;5.60;3.10;;;;;;;;;;4993074;28;20053;-79
2022/05/28 03:52:10;;;;;;;5.78;3.20;;;;;;;;;;4994104;28;20034;-78
2022/05/28 03:54:47;;;;;;;7.93;3.20;;;;;;;;;;5015813;28;20099;-79
2022/05/28 03:57:26;;;;;;;4.90;3.00;;;;;;;;;;4997644;28;20032;-78
2022/05/28 03:59:53;;;;;;;6.45;3.50;;;;;;;;;;4996382;28;20046;-79
2022/05/28 04:02:25;;;;;;;4.68;2.85;;;;;;;;;;4994572;28;20073;-78
2022/05/28 04:05:04;;;;;;;5.07;3.17;;;;;;;;;;4980554;28;20033;-78
2022/05/28 04:07:33;;;;;;;6.35;3.00;;;;;;;;;;5000741;28;20019;-79
2022/05/28 04:10:19;;;;;;;5.68;3.10;;;;;;;;;;4998630;28;20147;-80
2022/05/28 04:12:49;;;;;;;4.35;3.30;;;;;;;;;;4977213;28;20035;-78
2022/05/28 04:15:33;;;;;;;5.28;3.60;;;;;;;;;;4975219;28;20027;-78
2022/05/28 04:18:20;;;;;;;4.80;3.22;;;;;;;;;;4968442;29;20019;-79
2022/05/28 04:20:49;;;;;;;8.40;3.15;;;;;;;;;;4996138;28;20038;-78
2022/05/28 04:23:17;;;;;;;4.55;2.80;;;;;;;;;;4988557;28;20054;-78
2022/05/28 04:32:25;;;;;;;6.25;3.42;;;;;;;;;;4937604;29;20033;-80
2022/05/28 04:35:16;;;;;;;4.85;3.00;;;;;;;;;;4954775;29;20047;-80
2022/05/28 04:41:39;;;;;;;5.65;3.28;;;;;;;;;;4897060;29;20037;-79
2022/05/28 04:47:54;;;;;;;3.80;2.85;;;;;;;;;;4810039;29;20016;-79
2022/05/28 04:50:45;;;;;;;5.22;2.90;;;;;;;;;;4759551;30;20052;-80
2022/05/28 04:53:36;;;;;;;5.68;3.08;;;;;;;;;;4758729;30;20039;-80
2022/05/28 04:56:47;;;;;;;;;;;;;;;;;;;;;
2022/05/28 04:59:27;;;;;;;6.53;2.80;;;;;;;;;;4672837;30;20106;-79
2022/05/28 05:02:37;;;;;;;4.20;2.83;;;;;;;;;;4646218;30;20115;-79
2022/05/28 05:05:34;;;;;;;5.95;2.97;;;;;;;;;;4679099;30;20026;-79
2022/05/28 05:12:17;;;;;;;;;;;;;;;;;;;;;
2022/05/28 05:14:39;;;;;;;6.15;3.20;;;;;;;;;;5091828;23;20084;-76
2022/05/28 05:17:08;;;;;;;3.83;2.50;;;;;;;;;;5031706;28;20495;-75
2022/05/28 05:19:34;;;;;;;6.13;2.67;;;;;;;;;;5025229;28;20164;-75
2022/05/28 05:22:00;;;;;;;4.35;2.92;;;;;;;;;;5038138;28;20029;-78
2022/05/28 05:24:34;;;;;;;5.15;2.95;;;;;;;;;;5047688;28;20026;-78
2022/05/28 05:27:04;;;;;;;5.70;3.20;;;;;;;;;;5037470;28;20451;-74
2022/05/28 05:32:05;;;;;;;6.47;3.50;;;;;;;;;;4986829;28;20039;-74
2022/05/28 05:34:31;;;;;;;4.68;3.55;;;;;;;;;;4966995;29;20027;-73
2022/05/28 05:36:57;;;;;;;7.97;3.80;;;;;;;;;;4970841;29;20036;-74
2022/05/28 05:39:23;;;;;;;5.60;3.20;;;;;;;;;;4954423;28;20501;-74
2022/05/28 05:41:49;;;;;;;6.90;3.22;;;;;;;;;;4956905;28;20030;-75
2022/05/28 05:44:28;;;;;;;4.53;3.65;;;;;;;;;;4954358;29;20023;-74
2022/05/28 05:46:55;;;;;;;6.40;3.05;;;;;;;;;;4965681;28;20034;-76
2022/05/28 05:49:31;;;;;;;6.45;3.42;;;;;;;;;;4982425;28;20029;-74
2022/05/28 05:51:58;;;;;;;16.35;4.50;;;;;;;;;;4978480;28;20085;-74
2022/05/28 05:54:28;;;;;;;12.18;5.80;;;;;;;;;;4988107;28;20019;-75
2022/05/28 05:57:14;;;;;;;22.65;8.75;;;;;;;;;;4975494;28;20042;-77
2022/05/28 05:59:40;;;;;;;17.23;8.88;;;;;;;;;;4964962;28;20035;-74
2022/05/28 06:02:06;;;;;;;16.85;8.85;;;;;;;;;;4961871;28;20030;-76
2022/05/28 06:04:32;;;;;;;17.50;8.80;;;;;;;;;;4960468;28;20159;-76
2022/05/28 06:07:00;;;;;;;17.55;8.43;;;;;;;;;;4960226;29;20058;-77
2022/05/28 06:09:35;;;;;;;17.02;8.52;;;;;;;;;;4960015;28;20039;-76
2022/05/28 06:12:02;;;;;;;12.55;7.75;;;;;;;;;;4976117;28;20046;-72
2022/05/28 06:14:28;;;;;;;18.02;7.68;;;;;;;;;;4961118;28;20024;-74
2022/05/28 06:16:56;;;;;;;16.13;7.10;;;;;;;;;;4959117;28;20034;-72
2022/05/28 06:19:25;;;;;;;16.48;6.45;;;;;;;;;;4956887;29;20041;-72
2022/05/28 06:21:51;;;;;;;15.38;6.93;;;;;;;;;;4963074;28;20480;-72
2022/05/28 06:24:17;;;;;;;15.63;6.35;;;;;;;;;;4964562;28;20034;-72
2022/05/28 06:26:43;;;;;;;17.75;6.25;;;;;;;;;;4942676;29;20458;-73
2022/05/28 06:29:09;;;;;;;11.07;5.53;;;;;;;;;;4963018;28;20039;-74
2022/05/28 06:31:39;;;;;;;9.70;5.00;;;;;;;;;;4959775;28;20043;-72
2022/05/28 06:34:05;;;;;;;10.02;4.55;;;;;;;;;;4975685;28;20109;-72
2022/05/28 06:36:31;;;;;;;7.50;4.60;;;;;;;;;;4981905;28;20122;-72
2022/05/28 06:38:57;;;;;;;8.15;4.40;;;;;;;;;;4985472;28;20026;-71
2022/05/28 06:41:25;;;;;;;6.50;4.28;;;;;;;;;;4966758;28;20113;-72
2022/05/28 06:43:54;;;;;;;6.95;3.75;;;;;;;;;;4977915;28;20022;-73
2022/05/28 06:46:25;;;;;;;4.63;3.42;;;;;;;;;;4965485;28;20034;-76
2022/05/28 06:48:53;;;;;;;5.18;3.20;;;;;;;;;;4966006;28;20576;-72
2022/05/28 06:51:19;;;;;;;9.05;3.80;;;;;;;;;;4981280;28;20076;-71
2022/05/28 06:53:48;;;;;;;5.43;3.30;;;;;;;;;;4989908;28;20037;-72
2022/05/28 06:56:15;;;;;;;6.55;3.58;;;;;;;;;;4993293;28;20014;-71
2022/05/28 06:58:43;;;;;;;6.30;3.35;;;;;;;;;;4986061;28;20027;-71
2022/05/28 07:01:09;;;;;;;11.07;3.83;;;;;;;;;;4978102;28;20436;-72
2022/05/28 07:03:36;;;;;;;12.52;4.10;;;;;;;;;;4977378;28;20374;-72
2022/05/28 07:06:02;;;;;;;10.00;3.50;;;;;;;;;;4989284;28;20029;-72
2022/05/28 07:08:28;;;;;;;8.15;3.70;;;;;;;;;;4975791;28;20034;-72
2022/05/28 07:10:55;;;;;;;5.25;3.28;;;;;;;;;;4980416;28;20034;-72
2022/05/28 07:13:22;;;;;;;10.73;3.60;;;;;;;;;;4980407;28;20027;-74
2022/05/28 07:15:48;;;;;;;9.18;3.40;;;;;;;;;;4979754;28;20625;-71
2022/05/28 07:18:16;;;;;;;9.60;3.63;;;;;;;;;;4984898;28;20030;-74
2022/05/28 07:20:43;;;;;;;6.25;3.38;;;;;;;;;;4981691;28;20015;-73
2022/05/28 07:23:25;;;;;;;6.45;3.45;;;;;;;;;;4996203;28;20035;-76
2022/05/28 07:26:18;;;;;;;6.32;3.42;;;;;;;;;;4985887;28;20054;-75
2022/05/28 07:28:45;;;;;;;4.28;3.30;;;;;;;;;;4981950;28;20055;-70
2022/05/28 07:31:19;;;;;;;5.13;3.22;;;;;;;;;;4978570;28;20051;-74
2022/05/28 07:33:45;;;;;;;;;;;;;;;;;;4955957;28;20096;-73
2022/05/28 07:36:14;;;;;;;7.13;3.28;;;;;;;;;;4984781;28;19910;-75
2022/05/28 07:38:41;;;;;;;9.77;3.78;;;;;;;;;;5006087;28;20073;-74
2022/05/28 07:41:22;;;;;;;7.45;3.13;;;;;;;;;;4995926;28;20003;-77
2022/05/28 07:43:51;;;;;;;6.05;3.20;;;;;;;;;;4991900;28;20035;-74
2022/05/28 07:46:26;;;;;;;5.07;3.20;;;;;;;;;;4975128;28;20046;-76
2022/05/28 07:49:05;;;;;;;5.95;2.92;;;;;;;;;;5111864;23;20027;-78
2022/05/28 07:51:35;;;;;;;3.40;2.88;;;;;;;;;;5007433;28;20043;-78
2022/05/28 07:54:21;;;;;;;5.30;2.97;;;;;;;;;;5262773;23;20045;-72
2022/05/28 07:56:47;;;;;;;10.18;3.50;;;;;;;;;;5008194;28;20037;-73
2022/05/28 07:59:13;;;;;;;6.05;3.50;;;;;;;;;;5091289;23;20016;-77
2022/05/28 08:01:40;;;;;;;6.25;2.97;;;;;;;;;;5039673;28;20021;-79
2022/05/28 08:04:20;;;;;;;5.07;3.03;;;;;;;;;;5027768;28;20026;-78
2022/05/28 08:06:46;;;;;;;4.07;3.00;;;;;;;;;;5044330;28;20096;-75
2022/05/28 08:09:25;;;;;;;3.55;2.92;;;;;;;;;;5018506;28;20041;-79
2022/05/28 08:11:51;;;;;;;5.43;3.05;;;;;;;;;;5020768;28;20047;-74
2022/05/28 08:14:17;;;;;;;5.65;2.95;;;;;;;;;;5034466;28;20021;-77
2022/05/28 08:25:34;;;;;;;5.50;3.35;;;;;;;;;;4947028;29;20161;-75
2022/05/28 08:28:00;;;;;;;5.47;3.10;;;;;;;;;;4945003;29;20168;-76
2022/05/28 08:33:34;;;;;;;4.75;2.60;;;;;;;;;;4889023;29;20073;-73
2022/05/28 08:36:03;;;;;;;4.50;2.65;;;;;;;;;;4884028;29;20086;-73
2022/05/28 08:38:30;;;;;;;4.45;3.03;;;;;;;;;;4893941;29;20037;-74
2022/05/28 08:41:08;;;;;;;5.70;3.15;;;;;;;;;;4891243;29;20044;-76
2022/05/28 08:43:42;;;;;;;6.47;3.20;;;;;;;;;;4890645;29;20038;-76
2022/05/28 08:46:10;;;;;;;5.00;2.92;;;;;;;;;;4900572;29;20041;-79
2022/05/28 08:48:50;;;;;;;5.05;3.20;;;;;;;;;;4906375;29;20131;-71
2022/05/28 08:51:19;;;;;;;3.80;3.10;;;;;;;;;;4897218;29;20067;-76
2022/05/28 08:53:57;;;;;;;4.68;2.92;;;;;;;;;;4873987;29;20512;-74
2022/05/28 08:56:26;;;;;;;4.03;2.88;;;;;;;;;;4875272;29;20060;-74
2022/05/28 08:59:06;;;;;;;4.13;3.00;;;;;;;;;;4851694;29;20119;-73
2022/05/28 09:01:33;;;;;;;5.13;2.97;;;;;;;;;;4875522;29;20021;-74
2022/05/28 09:04:03;;;;;;;6.55;3.15;;;;;;;;;;4908831;29;20039;-75
2022/05/28 09:06:38;;;;;;;5.65;3.40;;;;;;;;;;4939496;29;20080;-75
2022/05/28 09:09:05;;;;;;;9.55;3.65;;;;;;;;;;4942165;29;20040;-76
2022/05/28 09:11:50;;;;;;;10.32;4.10;;;;;;;;;;4942369;29;20043;-76
2022/05/28 09:14:36;;;;;;;9.93;4.05;;;;;;;;;;4942424;29;20067;-74
2022/05/28 09:17:05;;;;;;;9.98;4.25;;;;;;;;;;4925604;29;20050;-74
2022/05/28 09:19:33;;;;;;;8.43;4.20;;;;;;;;;;4942407;29;20106;-75
2022/05/28 09:21:59;;;;;;;8.40;4.35;;;;;;;;;;4926360;29;20047;-74
2022/05/28 09:24:29;;;;;;;8.85;4.80;;;;;;;;;;4942621;29;20036;-75
2022/05/28 09:27:14;;;;;;;12.40;5.35;;;;;;;;;;4942771;29;20430;-75
2022/05/28 09:29:59;;;;;;;10.30;4.53;;;;;;;;;;4931225;29;20049;-75
2022/05/28 09:32:35;;;;;;;8.98;4.65;;;;;;;;;;4951045;29;20047;-76
2022/05/28 09:35:18;;;;;;;9.82;4.63;;;;;;;;;;4944561;29;20024;-74
2022/05/28 09:37:52;;;;;;;8.43;4.68;;;;;;;;;;4946721;29;20039;-76
2022/05/28 09:40:21;;;;;;;8.15;4.70;;;;;;;;;;4948401;29;20548;-76
2022/05/28 09:42:47;;;;;;;8.02;4.40;;;;;;;;;;4928856;29;20050;-75
2022/05/28 09:45:13;;;;;;;7.50;4.50;;;;;;;;;;4946972;29;20033;-76
2022/05/28 09:47:50;;;;;;;8.38;4.70;;;;;;;;;;4930052;29;20035;-77
2022/05/28 09:50:22;;;;;;;7.63;4.82;;;;;;;;;;4946746;29;20110;-76
2022/05/28 09:56:06;;;;;;;7.00;4.13;;;;;;;;;;4946978;29;20545;-77
2022/05/28 09:58:38;;;;;;;9.27;5.10;;;;;;;;;;4939181;29;20032;-78
2022/05/28 10:01:37;;;;;;;6.17;4.17;;;;;;;;;;4924646;29;20036;-76
2022/05/28 10:07:00;;;;;;;7.30;4.68;;;;;;;;;;4883862;29;20097;-77
2022/05/28 10:09:32;;;;;;;6.80;4.60;;;;;;;;;;4870597;29;20052;-75
2022/05/28 10:12:15;;;;;;;9.55;4.90;;;;;;;;;;4863183;29;20029;-75
2022/05/28 10:25:33;;;;;;;7.88;4.78;;;;;;;;;;4981428;23;20047;-79
2022/05/28 10:27:59;;;;;;;8.60;5.03;;;;;;;;;;4945737;29;20054;-74
2022/05/28 10:30:36;;;;;;;7.43;5.13;;;;;;;;;;4964513;28;20035;-75
2022/05/28 10:33:08;;;;;;;12.68;5.43;;;;;;;;;;4939967;29;20003;-77
2022/05/28 10:35:35;;;;;;;5.95;4.40;;;;;;;;;;4946810;29;20027;-78
2022/05/28 10:38:10;;;;;;;8.90;4.25;;;;;;;;;;4923235;29;20035;-74
2022/05/28 10:40:39;;;;;;;9.80;4.57;;;;;;;;;;4942793;29;20414;-77
2022/05/28 10:43:21;;;;;;;7.32;4.70;;;;;;;;;;4949813;29;20102;-75
2022/05/28 10:45:51;;;;;;;9.23;5.68;;;;;;;;;;4935054;29;20053;-75
2022/05/28 10:48:27;;;;;;;6.40;4.78;;;;;;;;;;4951994;29;20032;-75
2022/05/28 10:51:11;;;;;;;8.02;5.22;;;;;;;;;;4956674;29;20023;-77
2022/05/28 11:27:02;;;;;;;7.68;6.00;;;;;;;;;;5531667;23;20229;-77
2022/05/28 11:29:31;;;;;;;6.90;5.32;;;;;;;;;;4970755;29;20048;-74
2022/05/28 11:32:02;;;;;;;9.60;5.25;;;;;;;;;;4968861;29;20034;-74
2022/05/28 11:34:37;;;;;;;7.07;5.00;;;;;;;;;;4953627;29;20063;-74
2022/05/28 11:37:06;;;;;;;8.45;4.90;;;;;;;;;;4965457;28;20047;-76
2022/05/28 11:39:48;;;;;;;6.13;4.40;;;;;;;;;;4969521;29;20007;-74
2022/05/28 11:42:41;;;;;;;5.15;3.50;;;;;;;;;;4963554;28;20035;-76
2022/05/28 11:45:12;;;;;;;8.07;3.97;;;;;;;;;;4949088;29;20118;-75
2022/05/28 11:47:38;;;;;;;7.70;3.97;;;;;;;;;;4964294;29;20254;-76
2022/05/28 11:53:35;;;;;;;9.32;4.57;;;;;;;;;;4964639;29;20054;-77
2022/05/28 11:58:37;;;;;;;11.55;4.30;;;;;;;;;;5104730;23;20073;-79
2022/05/28 12:01:08;;;;;;;11.88;4.63;;;;;;;;;;4969963;28;20023;-78
2022/05/28 12:03:35;;;;;;;9.20;4.30;;;;;;;;;;4952382;28;20042;-79
2022/05/28 12:06:08;;;;;;;12.73;4.43;;;;;;;;;;4964943;28;20027;-79
2022/05/28 12:08:43;;;;;;;7.17;3.30;;;;;;;;;;4963738;28;20508;-78
2022/05/28 12:11:09;;;;;;;9.18;3.60;;;;;;;;;;4979584;28;20085;-79
2022/05/28 12:13:37;;;;;;;8.40;3.35;;;;;;;;;;4971573;28;20121;-79
2022/05/28 12:16:06;;;;;;;5.88;2.60;;;;;;;;;;4973055;28;20046;-75
2022/05/28 12:18:34;;;;;;;9.85;3.50;;;;;;;;;;4952117;28;20390;-78
2022/05/28 12:21:01;;;;;;;10.68;3.75;;;;;;;;;;4976832;28;20029;-78
2022/05/28 12:23:28;;;;;;;11.02;4.20;;;;;;;;;;4973563;28;20051;-78
2022/05/28 12:25:56;;;;;;;11.10;4.00;;;;;;;;;;4951032;28;20062;-77
2022/05/28 12:28:24;;;;;;;12.68;3.72;;;;;;;;;;4975481;28;20094;-76
2022/05/28 12:30:52;;;;;;;10.60;4.35;;;;;;;;;;4965788;28;20042;-76
2022/05/28 12:33:23;;;;;;;23.63;10.45;;;;;;;;;;4940411;29;20024;-76
2022/05/28 12:35:55;;;;;;;18.50;5.97;;;;;;;;;;4944738;29;20038;-77
2022/05/28 12:38:24;;;;;;;18.45;6.30;;;;;;;;;;4946118;29;20054;-75
2022/05/28 12:40:54;;;;;;;23.77;6.18;;;;;;;;;;4946828;29;20062;-77
2022/05/28 12:43:36;;;;;;;29.00;6.38;;;;;;;;;;4947698;29;20027;-76
2022/05/28 12:46:17;;;;;;;16.17;5.50;;;;;;;;;;4955272;29;20024;-76
2022/05/28 12:48:43;;;;;;;15.10;5.45;;;;;;;;;;4963089;28;20031;-79
2022/05/28 12:51:42;;;;;;;16.00;5.47;;;;;;;;;;4964860;29;20027;-76
2022/05/28 12:54:08;;;;;;;10.52;5.00;;;;;;;;;;4852770;29;20037;-75
2022/05/28 12:56:35;;;;;;;14.75;4.85;;;;;;;;;;4850362;29;20045;-74
2022/05/28 12:59:15;;;;;;;11.05;5.03;;;;;;;;;;4848921;29;20095;-77
2022/05/28 13:02:01;;;;;;;8.10;4.47;;;;;;;;;;4849738;29;20042;-75
2022/05/28 13:04:40;;;;;;;9.60;4.95;;;;;;;;;;4848162;29;20138;-75
2022/05/28 13:07:14;;;;;;;11.00;4.70;;;;;;;;;;4840727;29;20034;-76
2022/05/28 13:09:40;;;;;;;;;;;;;;;;;;4847200;29;20160;-77
2022/05/28 13:12:17;;;;;;;12.30;4.15;;;;;;;;;;4843487;29;20413;-77
2022/05/28 13:14:43;;;;;;;8.52;4.55;;;;;;;;;;4845998;29;20098;-76
2022/05/28 13:17:15;;;;;;;21.25;4.25;;;;;;;;;;4848548;29;20034;-76
2022/05/28 13:19:41;;;;;;;7.32;3.72;;;;;;;;;;4849195;29;20060;-75
2022/05/28 13:22:22;;;;;;;7.28;4.28;;;;;;;;;;4849776;29;20535;-76
2022/05/28 13:25:07;;;;;;;9.13;4.70;;;;;;;;;;4848305;29;20043;-76
2022/05/28 13:27:44;;;;;;;7.45;3.90;;;;;;;;;;4862904;29;20234;-76
2022/05/28 13:30:17;;;;;;;5.20;3.75;;;;;;;;;;4916340;28;20093;-76
2022/05/28 13:32:50;;;;;;;6.72;4.13;;;;;;;;;;4942452;29;20031;-75
2022/05/28 13:35:17;;;;;;;7.55;4.10;;;;;;;;;;4953703;29;20035;-76
2022/05/28 13:37:46;;;;;;;8.65;4.25;;;;;;;;;;4939758;29;20019;-77
2022/05/28 13:40:19;;;;;;;9.90;3.92;;;;;;;;;;4940988;29;20028;-77
2022/05/28 13:42:47;;;;;;;8.43;4.22;;;;;;;;;;4940137;29;20016;-76
2022/05/28 13:45:13;;;;;;;5.90;4.00;;;;;;;;;;4960598;29;20046;-77
2022/05/28 13:47:40;;;;;;;6.78;4.07;;;;;;;;;;4941563;29;20102;-77
2022/05/28 13:50:08;;;;;;;5.70;3.88;;;;;;;;;;4947554;29;20043;-77
2022/05/28 13:52:38;;;;;;;6.68;3.63;;;;;;;;;;4948872;29;20062;-76
2022/05/28 13:55:06;;;;;;;6.75;3.95;;;;;;;;;;4957663;29;20090;-76
2022/05/28 13:57:43;;;;;;;8.05;4.25;;;;;;;;;;4932154;28;20044;-77
2022/05/28 14:00:11;;;;;;;5.35;4.00;;;;;;;;;;4955040;28;20130;-76
2022/05/28 14:02:38;;;;;;;7.28;4.20;;;;;;;;;;4957758;29;20027;-76
2022/05/28 14:05:04;;;;;;;8.40;3.88;;;;;;;;;;4946390;29;20038;-76
2022/05/28 14:07:42;;;;;;;7.57;3.65;;;;;;;;;;4949332;29;20034;-76
2022/05/28 14:10:13;;;;;;;7.15;4.07;;;;;;;;;;4949585;29;20043;-76
2022/05/28 14:12:40;;;;;;;6.47;3.92;;;;;;;;;;4951608;29;20041;-76
2022/05/28 14:15:30;;;;;;;5.60;4.10;;;;;;;;;;4954496;29;20038;-77
2022/05/28 14:18:01;;;;;;;7.05;4.18;;;;;;;;;;4966896;29;20027;-76
2022/05/28 14:20:49;;;;;;;6.85;4.40;;;;;;;;;;4957741;28;20047;-76
2022/05/28 14:23:35;;;;;;;8.02;4.75;;;;;;;;;;4954517;29;20019;-77
2022/05/28 14:26:03;;;;;;;11.35;5.05;;;;;;;;;;4956273;28;20219;-77
2022/05/28 14:28:30;;;;;;;13.20;5.50;;;;;;;;;;4902811;29;20130;-77
2022/05/28 14:30:56;;;;;;;9.15;4.10;;;;;;;;;;4969185;29;20031;-76
2022/05/28 14:33:26;;;;;;;8.02;4.57;;;;;;;;;;4952305;29;20042;-78
2022/05/28 14:36:04;;;;;;;9.75;4.95;;;;;;;;;;4965874;29;20102;-76
2022/05/28 14:38:34;;;;;;;12.38;5.47;;;;;;;;;;4957427;29;20063;-77
2022/05/28 14:41:01;;;;;;;16.25;6.10;;;;;;;;;;4953597;29;20019;-76
2022/05/28 14:43:31;;;;;;;10.02;5.60;;;;;;;;;;4961777;29;20031;-77
2022/05/28 14:46:05;;;;;;;10.50;4.90;;;;;;;;;;4975125;29;20469;-75
2022/05/28 14:51:29;;;;;;;15.48;5.78;;;;;;;;;;4978854;29;19917;-76
2022/05/28 14:54:20;;;;;;;11.32;5.72;;;;;;;;;;5031491;23;20047;-75
2022/05/28 14:56:49;;;;;;;9.63;6.00;;;;;;;;;;4951369;29;20023;-77
2022/05/28 15:02:11;;;;;;;9.25;5.50;;;;;;;;;;5069243;23;20038;-76
2022/05/28 15:04:37;;;;;;;7.88;4.97;;;;;;;;;;4995370;28;20026;-76
2022/05/28 15:07:13;;;;;;;8.27;5.13;;;;;;;;;;4980835;28;20106;-77
2022/05/28 15:10:16;;;;;;;9.65;5.47;;;;;;;;;;4976259;28;20047;-76
2022/05/28 15:13:09;;;;;;;8.10;5.00;;;;;;;;;;4919207;28;20184;-76
2022/05/28 15:15:41;;;;;;;9.68;4.78;;;;;;;;;;4893875;29;20053;-76
2022/05/28 15:18:07;;;;;;;8.82;5.55;;;;;;;;;;4889948;29;20120;-73
2022/05/28 15:20:33;;;;;;;11.00;5.53;;;;;;;;;;4879483;29;20037;-75
2022/05/28 15:23:01;;;;;;;6.10;5.05;;;;;;;;;;4880267;29;20415;-74
2022/05/28 15:25:29;;;;;;;10.95;6.15;;;;;;;;;;4886896;29;20044;-75
2022/05/28 15:27:55;;;;;;;12.40;6.72;;;;;;;;;;4883185;29;20024;-75
2022/05/28 15:30:21;;;;;;;11.18;6.78;;;;;;;;;;4886156;29;20515;-75
2022/05/28 15:32:49;;;;;;;16.38;7.93;;;;;;;;;;4906417;29;20043;-74
2022/05/28 15:37:51;;;;;;;12.23;7.50;;;;;;;;;;4900197;29;20028;-77
2022/05/28 15:38:03;;;;;;;9.40;6.82;;;;;;;;;;4902685;29;20051;-75
2022/05/28 15:40:29;;;;;;;11.18;7.45;;;;;;;;;;4906918;29;20036;-73
2022/05/28 15:42:59;;;;;;;16.55;10.95;;;;;;;;;;4917916;29;20059;-76
2022/05/28 15:45:26;;;;;;;12.98;9.18;;;;;;;;;;4912733;29;20047;-75
2022/05/28 15:47:52;;;;;;;10.05;6.55;;;;;;;;;;4897156;29;20152;-75
2022/05/28 15:50:19;;;;;;;13.63;7.05;;;;;;;;;;4915468;29;20047;-76
2022/05/28 15:52:55;;;;;;;9.15;6.07;;;;;;;;;;4923076;29;20036;-73
2022/05/28 15:55:24;;;;;;;10.25;6.30;;;;;;;;;;4938336;29;20028;-74
2022/05/28 15:57:55;;;;;;;12.18;6.43;;;;;;;;;;4937348;29;20051;-74
2022/05/28 16:00:22;;;;;;;8.77;7.20;;;;;;;;;;4941605;29;20052;-72
2022/05/28 16:02:48;;;;;;;9.40;5.63;;;;;;;;;;4947167;29;20473;-73
2022/05/28 16:05:15;;;;;;;11.93;6.15;;;;;;;;;;4928382;29;20532;-75
2022/05/28 16:07:41;;;;;;;11.95;5.55;;;;;;;;;;4950738;29;20071;-76
2022/05/28 16:10:07;;;;;;;8.40;6.18;;;;;;;;;;4945017;29;20040;-76
2022/05/28 16:12:35;;;;;;;10.75;6.47;;;;;;;;;;4945597;29;20450;-75
2022/05/28 16:15:02;;;;;;;12.55;6.13;;;;;;;;;;4951538;29;20577;-75
2022/05/28 16:17:30;;;;;;;11.48;6.40;;;;;;;;;;4946985;29;20027;-76
2022/05/28 16:19:56;;;;;;;11.80;6.35;;;;;;;;;;4951891;29;20054;-74
2022/05/28 16:22:22;;;;;;;8.93;6.38;;;;;;;;;;4955221;28;20500;-77
2022/05/28 16:27:36;;;;;;;11.65;6.57;;;;;;;;;;4923349;29;20070;-76
2022/05/28 16:30:07;;;;;;;11.57;6.85;;;;;;;;;;4956014;29;20035;-77
2022/05/28 16:32:35;;;;;;;14.32;6.03;;;;;;;;;;4956207;29;20397;-76
2022/05/28 16:35:08;;;;;;;14.10;8.15;;;;;;;;;;4951097;29;20378;-75
2022/05/28 16:37:35;;;;;;;11.25;7.28;;;;;;;;;;4962935;29;20054;-76
2022/05/28 16:40:10;;;;;;;14.50;7.55;;;;;;;;;;4950696;29;20039;-76
2022/05/28 16:42:53;;;;;;;13.10;7.30;;;;;;;;;;4929736;29;20035;-75
2022/05/28 16:45:21;;;;;;;10.10;6.35;;;;;;;;;;4960025;29;20028;-75
2022/05/28 16:47:49;;;;;;;9.32;6.28;;;;;;;;;;4972032;23;20056;-74
2022/05/28 16:50:22;;;;;;;11.52;5.68;;;;;;;;;;4943940;29;20038;-74
2022/05/28 16:52:48;;;;;;;8.15;6.00;;;;;;;;;;4945682;29;20086;-77